Hillpoint, WI

11:15 PM CDT on August 28, 2015 (GMT -0500)
Village Hillside | | Change Station
CLOSE
Current Station
Personal Weather Station
Location: Cazenovia, WI
Elevation: 991 ft
Nearby Weather Stations

Elev 991 ft 43.52 °N, 90.19 °W | Updated 16 seconds ago

Rain
Rain
59.2 °F
Feels Like 59.2 °F
N
1.3
Wind Variable Wind from NNW
Gusts 2.5 mph

Today
High -- | Low -- °F
--% Chance of Precip.
Yesterday
High -- | Low -- °F
Precip. -- in
6:19 AM 7:43 PM
Waxing Gibbous, 99% visible
Pressure 30.04 in
Visibility 3.0 miles
Clouds Mostly Cloudy 1500 ft
Mostly Cloudy 2000 ft
Overcast 2400 ft
Dew Point 59 °F
Humidity 99%
Rainfall 1.07 in
Snow Depth Not available.
UV 0.0 out of 12
Pollen 3.70 out of 12
Air Quality Not available.
Flu Activity Not available.
SPECI KLNR 290410Z AUTO 06008KT 3SM RA BR BKN015 BKN020 OVC024 17/16 A3004 RMK AO2 P0006 T01720156
Pressure 30.04 in
Visibility 3.0 miles
Clouds Mostly Cloudy 1500 ft
Mostly Cloudy 2000 ft
Overcast 2400 ft
Dew Point 59 °F
Humidity 99%
Rainfall 1.07 in
Snow Depth Not available.
UV 0.0 out of 12
Pollen 3.70 out of 12
Air Quality Not available.
Flu Activity Not available.
SPECI KLNR 290410Z AUTO 06008KT 3SM RA BR BKN015 BKN020 OVC024 17/16 A3004 RMK AO2 P0006 T01720156

10-Day Weather Forecast

×

Almanac

Astronomy

Aug. 28, 2015 Rise Set
Actual Time
Civil Twilight
Nautical Twilight
Astronomical Twilight
Moon
Length of Visible Light
Length of Day
Tomorrow will be .
, % of the Moon is Illuminated

Today's Extremes

State Highs State Lows

Community

WunderPhotos

Upload Photos

1,850,611 photos uploaded!

WunderBlogs® & News

Nearby

Air Quality

  Air Quality AQ Index Pollutant
Not available.

Snow Depth

Station Depth Elevation

Earthquake Activity

City Distance Mag. Time & Date
Minimum magnitude displayed is 2.5.

Coastal Water Temperatures

Place Temperature

Stations

Nearby Weather Stations

Station Location Temp. Windchill Dew Point Humidity Wind Precip. Elev Updated Type